Terminal Aerodrome Forecast
Issued by NWS

Home | Current Version | Previous Version | Text Only | Print | Product List | Glossary Off
Versions: 1 2 3 4 5 6 7 8 9 10 11 12 13 14 15 16 17 18 19 20 21 22 23 24

000
FTUS43 KLSX 302322
TAFUIN
TAF
KUIN 302322Z 3100/3124 VRB03KT P6SM FEW040
     FM310500 VRB03KT 6SM BR SKC
     FM310700 VRB02KT 3SM BR SKC
     FM310900 VRB02KT 1SM BR SKC
      TEMPO 3109/3112 1/4SM FG BKN002
     FM311400 17006KT 4SM BR BKN005
     FM311600 18007KT P6SM SCT040=

USA.gov is the U.S. government's official web portal to all federal, state and local government web resources and services.